Hatfield, PA

4:05 AM EST on December 19, 2014 (GMT -0500)
Hatfield | Change Station
CLOSE
Current Station
Personal Weather Station
Location: Hatfield, PA
Elevation: 350 ft
Nearby Weather Stations

Elev 350 ft 40.28 °N, 75.30 °W | Updated 4 hours ago

Overcast
Overcast
35.2 °F
Feels Like 35.2 °F
N
2.9
Wind Variable Wind from SSW
Gusts 3.4 mph

Today
High -- | Low -- °F
--% Chance of Precip.
Yesterday
High -- | Low -- °F
Precip. -- in
7:19 AM 4:37 PM
Waning Crescent, 9% visible
Pressure 30.02 in
Visibility 10.0 miles
Clouds Overcast 3000 ft
Dew Point 24.7 °F
Humidity 65%
Rainfall 0.00 in
Snow Depth Not available.
UV 0.0 out of 12
Pollen .10 out of 12
Air Quality Not available.
Flu Activity Not available.
METAR KDYL 190854Z AUTO 28004KT 10SM OVC030 01/M04 A3000 RMK AO2 SLP166 T00111039 50003

More Conditions Fewer Conditions

Pressure 30.02 in
Visibility 10.0 miles
Clouds Overcast 3000 ft
Dew Point 24.7 °F
Humidity 65%
Rainfall 0.00 in
Snow Depth Not available.
UV 0.0 out of 12
Pollen .10 out of 12
Air Quality Not available.
Flu Activity Not available.
METAR KDYL 190854Z AUTO 28004KT 10SM OVC030 01/M04 A3000 RMK AO2 SLP166 T00111039 50003

More Conditions Fewer Conditions

10-Day Weather Forecast

Almanac

Astronomy

Dec. 19, 2014 Rise Set
Actual Time
Civil Twilight
Nautical Twilight
Astronomical Twilight
Moon
Length of Visible Light
Length of Day
Tomorrow will be .
, % of the Moon is Illuminated

Today's Extremes

State Highs State Lows

Community

WunderPhotos

Upload Photos

1,778,953 photos uploaded!

WunderBlogs® & News

Nearby

Air Quality

  Air Quality AQ Index Pollutant
Not available.

Snow Depth

Station Depth Elevation

Earthquake Activity

City Distance Mag. Time & Date
Minimum magnitude displayed is 2.5.

Coastal Water Temperatures

Place Temperature

Nearby Weather Stations